createdAt,value
2023-03-05T00:00:05.520Z,2.10
2023-03-05T00:00:36.824Z,2.09
2023-03-05T00:01:09.642Z,2.08
2023-03-05T00:01:36.034Z,2.07
2023-03-05T00:01:59.166Z,2.07
2023-03-05T00:02:22.182Z,2.06
2023-03-05T00:02:45.311Z,2.06
2023-03-05T00:03:08.511Z,2.05
2023-03-05T00:03:33.990Z,2.05
2023-03-05T00:03:57.265Z,2.05
2023-03-05T00:04:21.630Z,2.06
2023-03-05T00:04:44.724Z,2.06
2023-03-05T00:05:08.457Z,2.07
2023-03-05T00:05:32.490Z,2.07
2023-03-05T00:05:58.566Z,2.08
2023-03-05T00:06:22.001Z,2.09
2023-03-05T00:06:45.109Z,2.10
2023-03-05T00:07:09.850Z,2.10
2023-03-05T00:07:32.865Z,2.11
2023-03-05T00:08:00.167Z,2.13
2023-03-05T00:08:23.897Z,2.13
2023-03-05T00:08:47.538Z,2.14
2023-03-05T00:09:10.840Z,2.15
2023-03-05T00:09:38.765Z,2.16
2023-03-05T00:10:03.030Z,2.17
2023-03-05T00:10:27.430Z,2.18
2023-03-05T00:10:57.924Z,2.18
2023-03-05T00:11:21.962Z,2.18
2023-03-05T00:11:45.072Z,2.18
2023-03-05T00:12:08.594Z,2.17
2023-03-05T00:12:31.718Z,2.17
2023-03-05T00:12:54.707Z,2.16
2023-03-05T00:13:18.041Z,2.15
2023-03-05T00:13:41.269Z,2.14
2023-03-05T00:14:06.409Z,2.13
2023-03-05T00:14:29.526Z,2.12
2023-03-05T00:14:52.773Z,2.12
2023-03-05T00:15:18.624Z,2.11
2023-03-05T00:15:43.445Z,2.11
2023-03-05T00:16:11.114Z,2.11
2023-03-05T00:16:39.107Z,2.11
2023-03-05T00:17:02.328Z,2.12
2023-03-05T00:17:25.440Z,2.13
2023-03-05T00:17:48.560Z,2.13
2023-03-05T00:18:11.767Z,2.14
2023-03-05T00:18:35.698Z,2.14
2023-03-05T00:18:58.917Z,2.15
2023-03-05T00:19:22.032Z,2.15
2023-03-05T00:19:45.247Z,2.15
2023-03-05T00:20:08.872Z,2.16
2023-03-05T00:20:32.094Z,2.16
2023-03-05T00:20:55.309Z,2.16
2023-03-05T00:21:24.684Z,2.17
2023-03-05T00:21:47.878Z,2.18
2023-03-05T00:22:14.088Z,2.17
2023-03-05T00:22:37.479Z,2.16
2023-03-05T00:23:02.837Z,2.16
2023-03-05T00:23:26.266Z,2.15
2023-03-05T00:23:50.930Z,2.15
2023-03-05T00:24:15.249Z,2.14
2023-03-05T00:24:39.293Z,2.13
2023-03-05T00:25:03.217Z,2.12
2023-03-05T00:25:26.450Z,2.11
2023-03-05T00:25:49.956Z,2.09
2023-03-05T00:26:13.071Z,2.07
2023-03-05T00:26:37.309Z,2.06
2023-03-05T00:27:00.629Z,2.05
2023-03-05T00:27:23.945Z,2.03
2023-03-05T00:27:48.184Z,2.02
2023-03-05T00:28:11.301Z,2.00
2023-03-05T00:28:34.517Z,1.99
2023-03-05T00:28:57.571Z,1.98
2023-03-05T00:29:22.079Z,1.97
2023-03-05T00:29:46.422Z,1.97
2023-03-05T00:30:10.041Z,1.96
2023-03-05T00:30:34.999Z,1.95
2023-03-05T00:31:02.379Z,1.95
2023-03-05T00:31:26.787Z,1.95
2023-03-05T00:31:49.902Z,1.95
2023-03-05T00:32:13.106Z,1.94
2023-03-05T00:32:36.564Z,1.94
2023-03-05T00:32:59.721Z,1.93
2023-03-05T00:33:22.931Z,1.94
2023-03-05T00:33:46.260Z,1.93
2023-03-05T00:34:09.672Z,1.92
2023-03-05T00:34:32.897Z,1.93
2023-03-05T00:34:56.016Z,1.92
2023-03-05T00:35:21.938Z,1.92
2023-03-05T00:35:51.243Z,1.92
2023-03-05T00:36:15.479Z,1.90
2023-03-05T00:36:56.637Z,1.90
2023-03-05T00:37:20.853Z,1.88
2023-03-05T00:37:43.937Z,1.87
2023-03-05T00:38:07.255Z,1.86
2023-03-05T00:38:30.473Z,1.84
2023-03-05T00:38:53.487Z,1.83
2023-03-05T00:39:17.940Z,1.81
2023-03-05T00:39:41.049Z,1.80
2023-03-05T00:40:04.717Z,1.79
2023-03-05T00:40:27.925Z,1.77
2023-03-05T00:40:51.009Z,1.75
2023-03-05T00:41:14.769Z,1.74
2023-03-05T00:41:38.275Z,1.73
2023-03-05T00:42:02.691Z,1.73
2023-03-05T00:42:25.911Z,1.73
2023-03-05T00:42:48.960Z,1.73
2023-03-05T00:43:12.034Z,1.73
2023-03-05T00:43:35.251Z,1.73
2023-03-05T00:43:58.671Z,1.73
2023-03-05T00:44:21.859Z,1.73
2023-03-05T00:44:46.288Z,1.73
2023-03-05T00:45:09.855Z,1.73
2023-03-05T00:45:33.187Z,1.73
2023-03-05T00:45:56.288Z,1.73
2023-03-05T00:46:19.409Z,1.72
2023-03-05T00:46:42.770Z,1.73
2023-03-05T00:47:08.815Z,1.72
2023-03-05T00:47:35.595Z,1.71
2023-03-05T00:48:00.345Z,1.71
2023-03-05T00:48:23.261Z,1.70
2023-03-05T00:48:46.484Z,1.69
2023-03-05T00:49:09.791Z,1.68
2023-03-05T00:49:33.118Z,1.66
2023-03-05T00:49:56.547Z,1.66
2023-03-05T00:50:20.053Z,1.64
2023-03-05T00:50:43.371Z,1.64
2023-03-05T00:51:07.015Z,1.62
2023-03-05T00:51:30.099Z,1.61
2023-03-05T00:51:53.341Z,1.61
2023-03-05T00:52:16.344Z,1.60
2023-03-05T00:52:39.659Z,1.60
2023-03-05T00:53:03.183Z,1.59
2023-03-05T00:53:26.519Z,1.58
2023-03-05T00:53:49.493Z,1.59
2023-03-05T00:54:12.529Z,1.60
2023-03-05T00:54:38.212Z,1.60
2023-03-05T00:55:01.316Z,1.60
2023-03-05T00:55:26.068Z,1.60
2023-03-05T00:55:49.073Z,1.61
2023-03-05T00:56:12.081Z,1.61
2023-03-05T00:56:35.210Z,1.62
2023-03-05T00:56:58.223Z,1.62
2023-03-05T00:57:21.226Z,1.63
2023-03-05T00:57:44.334Z,1.64
2023-03-05T00:58:07.548Z,1.65
2023-03-05T00:58:30.663Z,1.66
2023-03-05T00:58:54.091Z,1.67
2023-03-05T00:59:17.104Z,1.69
2023-03-05T00:59:41.600Z,1.69
2023-03-05T01:00:06.294Z,1.70
2023-03-05T01:00:30.328Z,1.71
2023-03-05T01:00:57.329Z,1.72
2023-03-05T01:01:21.277Z,1.73
2023-03-05T01:01:44.399Z,1.73
2023-03-05T01:02:08.331Z,1.73
2023-03-05T01:02:34.479Z,1.73
2023-03-05T01:02:58.016Z,1.72
2023-03-05T01:03:23.679Z,1.72
2023-03-05T01:03:48.631Z,1.71
2023-03-05T01:04:14.093Z,1.70
2023-03-05T01:04:38.961Z,1.70
2023-03-05T01:05:03.712Z,1.69
2023-03-05T01:05:28.818Z,1.69
2023-03-05T01:05:52.995Z,1.68
2023-03-05T01:06:17.436Z,1.68
2023-03-05T01:06:44.956Z,1.67
2023-03-05T01:07:10.823Z,1.68
2023-03-05T01:07:35.902Z,1.68
2023-03-05T01:07:59.402Z,1.70
2023-03-05T01:08:22.492Z,1.71
2023-03-05T01:08:46.038Z,1.72
2023-03-05T01:09:10.608Z,1.74
2023-03-05T01:09:34.061Z,1.75
2023-03-05T01:10:03.051Z,1.78
2023-03-05T01:10:29.259Z,1.80
2023-03-05T01:10:56.414Z,1.81
2023-03-05T01:11:21.800Z,1.82
2023-03-05T01:11:45.119Z,1.82
2023-03-05T01:12:10.289Z,1.83
2023-03-05T01:12:33.695Z,1.83
2023-03-05T01:12:57.424Z,1.82
2023-03-05T01:13:20.638Z,1.83
2023-03-05T01:13:43.653Z,1.83
2023-03-05T01:14:06.902Z,1.82
2023-03-05T01:14:30.389Z,1.82
2023-03-05T01:14:53.776Z,1.81
2023-03-05T01:15:17.642Z,1.81
2023-03-05T01:15:41.164Z,1.80
2023-03-05T01:16:04.622Z,1.80
2023-03-05T01:16:27.799Z,1.80
2023-03-05T01:16:50.911Z,1.80
2023-03-05T01:17:16.381Z,1.80
2023-03-05T01:17:39.695Z,1.81
2023-03-05T01:18:02.911Z,1.82
2023-03-05T01:18:27.050Z,1.83
2023-03-05T01:18:50.267Z,1.84
2023-03-05T01:19:13.793Z,1.85
2023-03-05T01:19:36.901Z,1.86
2023-03-05T01:20:00.425Z,1.87
2023-03-05T01:20:25.007Z,1.88
2023-03-05T01:20:49.737Z,1.89
2023-03-05T01:21:18.868Z,1.89
2023-03-05T01:21:42.295Z,1.89
2023-03-05T01:22:09.596Z,1.88
2023-03-05T01:22:33.536Z,1.87
2023-03-05T01:22:59.107Z,1.86
2023-03-05T01:23:23.643Z,1.84
2023-03-05T01:23:46.964Z,1.83
2023-03-05T01:24:09.987Z,1.81
2023-03-05T01:24:33.608Z,1.81
2023-03-05T01:24:56.816Z,1.78
2023-03-05T01:25:20.643Z,1.77
2023-03-05T01:25:43.795Z,1.75
2023-03-05T01:26:08.788Z,1.73
2023-03-05T01:26:32.239Z,1.71
2023-03-05T01:26:55.349Z,1.70
2023-03-05T01:27:18.463Z,1.69
2023-03-05T01:27:41.696Z,1.68
2023-03-05T01:28:06.941Z,1.68
2023-03-05T01:28:35.270Z,1.68
2023-03-05T01:28:59.817Z,1.68
2023-03-05T01:29:23.141Z,1.69
2023-03-05T01:29:46.262Z,1.69
2023-03-05T01:30:10.186Z,1.70
2023-03-05T01:30:34.729Z,1.70
2023-03-05T01:30:58.144Z,1.70
2023-03-05T01:31:21.406Z,1.70
2023-03-05T01:31:45.045Z,1.70
2023-03-05T01:32:08.936Z,1.69
2023-03-05T01:32:33.627Z,1.68
2023-03-05T01:32:57.909Z,1.67
2023-03-05T01:33:20.936Z,1.66
2023-03-05T01:33:43.930Z,1.65
2023-03-05T01:34:07.967Z,1.63
2023-03-05T01:34:37.319Z,1.61
2023-03-05T01:35:05.954Z,1.58
2023-03-05T01:35:30.070Z,1.56
2023-03-05T01:35:53.527Z,1.55
2023-03-05T01:36:17.241Z,1.53
2023-03-05T01:36:41.595Z,1.52
2023-03-05T01:37:04.696Z,1.52
2023-03-05T01:37:28.532Z,1.51
2023-03-05T01:37:51.744Z,1.51
2023-03-05T01:38:15.163Z,1.51
2023-03-05T01:38:38.386Z,1.52
2023-03-05T01:39:01.700Z,1.51
2023-03-05T01:39:24.836Z,1.52
2023-03-05T01:39:48.193Z,1.52
2023-03-05T01:40:11.862Z,1.53
2023-03-05T01:40:36.713Z,1.52
2023-03-05T01:40:59.637Z,1.52
2023-03-05T01:41:23.021Z,1.52
2023-03-05T01:41:47.795Z,1.51
2023-03-05T01:42:10.811Z,1.49
2023-03-05T01:42:34.965Z,1.48
2023-03-05T01:43:01.801Z,1.47
2023-03-05T01:43:29.152Z,1.45
2023-03-05T01:43:53.180Z,1.43
2023-03-05T01:44:27.248Z,1.41
2023-03-05T01:45:20.031Z,1.39
2023-03-05T01:46:01.831Z,1.35
2023-03-05T01:46:27.666Z,1.32
2023-03-05T01:46:50.697Z,1.31
2023-03-05T01:47:14.768Z,1.29
2023-03-05T01:47:39.013Z,1.27
2023-03-05T01:48:02.117Z,1.26
2023-03-05T01:48:25.437Z,1.25
2023-03-05T01:48:52.975Z,1.24
2023-03-05T01:49:29.775Z,1.24
2023-03-05T01:49:54.419Z,1.23
2023-03-05T01:50:17.838Z,1.24
2023-03-05T01:50:40.731Z,1.25
2023-03-05T01:51:04.277Z,1.25
2023-03-05T01:51:27.796Z,1.26
2023-03-05T01:51:56.745Z,1.27
2023-03-05T01:52:20.163Z,1.27
2023-03-05T01:52:45.722Z,1.27
2023-03-05T01:53:08.741Z,1.27
2023-03-05T01:53:33.079Z,1.28
2023-03-05T01:53:58.236Z,1.27
2023-03-05T01:54:21.563Z,1.27
2023-03-05T01:54:47.637Z,1.25
2023-03-05T01:55:17.908Z,1.25
2023-03-05T01:55:41.640Z,1.23
2023-03-05T01:56:04.786Z,1.21
2023-03-05T01:56:29.036Z,1.19
2023-03-05T01:56:52.140Z,1.17
2023-03-05T01:57:36.798Z,1.15
2023-03-05T01:58:10.351Z,1.12
2023-03-05T01:58:33.550Z,1.10
2023-03-05T01:59:03.510Z,1.07
2023-03-05T01:59:27.681Z,1.05
2023-03-05T01:59:52.521Z,1.03
2023-03-05T02:00:16.872Z,1.02
2023-03-05T02:00:44.316Z,1.01
2023-03-05T02:01:08.115Z,0.99
2023-03-05T02:01:32.529Z,0.98
2023-03-05T02:01:56.167Z,0.98
2023-03-05T02:02:19.791Z,0.97
2023-03-05T02:02:43.722Z,0.98
2023-03-05T02:03:10.025Z,0.98
2023-03-05T02:03:33.542Z,0.99
2023-03-05T02:03:56.960Z,1.00
2023-03-05T02:04:20.373Z,1.00
2023-03-05T02:04:46.074Z,1.01
2023-03-05T02:05:17.240Z,1.01
2023-03-05T02:05:43.338Z,1.01
2023-03-05T02:06:06.390Z,1.00
2023-03-05T02:06:29.565Z,0.99
2023-03-05T02:06:52.981Z,0.98
2023-03-05T02:07:16.283Z,0.97
2023-03-05T02:07:40.236Z,0.96
2023-03-05T02:08:05.016Z,0.95
2023-03-05T02:08:27.994Z,0.94
2023-03-05T02:08:51.297Z,0.92
2023-03-05T02:09:14.722Z,0.92
2023-03-05T02:09:41.001Z,0.91
2023-03-05T02:10:24.672Z,0.90
2023-03-05T02:10:51.480Z,0.91
2023-03-05T02:11:17.243Z,0.92
2023-03-05T02:11:40.672Z,0.93
2023-03-05T02:12:04.391Z,0.94
2023-03-05T02:12:27.645Z,0.95
2023-03-05T02:12:51.086Z,0.95
2023-03-05T02:13:16.292Z,0.96
2023-03-05T02:13:40.851Z,0.97
2023-03-05T02:14:04.060Z,0.97
2023-03-05T02:14:27.208Z,0.97
2023-03-05T02:14:58.599Z,0.98
2023-03-05T02:15:21.734Z,0.97
2023-03-05T02:15:44.898Z,0.97
2023-03-05T02:16:08.085Z,0.96
2023-03-05T02:16:36.950Z,0.95
2023-03-05T02:17:03.648Z,0.94
2023-03-05T02:17:27.480Z,0.93
2023-03-05T02:17:52.141Z,0.92
2023-03-05T02:18:16.061Z,0.91
2023-03-05T02:18:40.298Z,0.90
2023-03-05T02:19:05.056Z,0.90
2023-03-05T02:19:28.384Z,0.90
2023-03-05T02:19:55.886Z,0.91
2023-03-05T02:20:20.222Z,0.91
2023-03-05T02:20:51.108Z,0.92
2023-03-05T02:21:14.120Z,0.94
2023-03-05T02:21:46.850Z,0.94
2023-03-05T02:22:14.379Z,0.96
2023-03-05T02:22:39.621Z,0.97
2023-03-05T02:23:02.639Z,0.97
2023-03-05T02:23:27.396Z,0.97
2023-03-05T02:23:50.692Z,0.96
2023-03-05T02:24:15.253Z,0.94
2023-03-05T02:24:39.795Z,0.93
2023-03-05T02:25:12.110Z,0.92
2023-03-05T02:25:35.435Z,0.91
2023-03-05T02:25:58.852Z,0.89
2023-03-05T02:26:22.070Z,0.88
2023-03-05T02:26:45.266Z,0.86
2023-03-05T02:27:08.333Z,0.85
2023-03-05T02:27:35.145Z,0.83
2023-03-05T02:28:06.799Z,0.81
2023-03-05T02:28:35.234Z,0.79
2023-03-05T02:28:58.954Z,0.77
2023-03-05T02:29:21.972Z,0.76
2023-03-05T02:29:45.541Z,0.77
2023-03-05T02:30:09.237Z,0.77
2023-03-05T02:30:33.152Z,0.77
2023-03-05T02:30:56.283Z,0.77
2023-03-05T02:31:20.158Z,0.78
2023-03-05T02:31:43.748Z,0.79
2023-03-05T02:32:07.012Z,0.80
2023-03-05T02:32:30.287Z,0.81
2023-03-05T02:32:53.698Z,0.81
2023-03-05T02:33:17.409Z,0.81
2023-03-05T02:33:40.359Z,0.81
2023-03-05T02:34:03.936Z,0.81
2023-03-05T02:34:27.674Z,0.80
2023-03-05T02:34:53.747Z,0.79
2023-03-05T02:35:16.932Z,0.78
2023-03-05T02:35:40.337Z,0.77
2023-03-05T02:36:04.014Z,0.76
2023-03-05T02:36:29.171Z,0.75
2023-03-05T02:36:52.394Z,0.74
2023-03-05T02:37:15.809Z,0.73
2023-03-05T02:37:39.035Z,0.72
2023-03-05T02:38:02.447Z,0.71
2023-03-05T02:38:25.580Z,0.70
2023-03-05T02:38:48.988Z,0.70
2023-03-05T02:39:12.400Z,0.70
2023-03-05T02:39:35.620Z,0.70
2023-03-05T02:40:02.216Z,0.72
2023-03-05T02:40:25.832Z,0.73
2023-03-05T02:40:49.099Z,0.74
2023-03-05T02:41:12.265Z,0.74
2023-03-05T02:41:36.521Z,0.76
2023-03-05T02:42:00.198Z,0.77
2023-03-05T02:42:33.679Z,0.79
2023-03-05T02:42:57.304Z,0.80
2023-03-05T02:43:20.824Z,0.79
2023-03-05T02:43:45.063Z,0.78
2023-03-05T02:44:08.693Z,0.78
2023-03-05T02:44:32.110Z,0.77
2023-03-05T02:44:58.089Z,0.77
2023-03-05T02:45:21.635Z,0.77
2023-03-05T02:45:46.597Z,0.76
2023-03-05T02:46:10.120Z,0.76
2023-03-05T02:46:33.720Z,0.75
2023-03-05T02:46:56.850Z,0.74
2023-03-05T02:47:20.649Z,0.73
2023-03-05T02:47:43.698Z,0.72
2023-03-05T02:48:06.991Z,0.72
2023-03-05T02:48:31.129Z,0.72
2023-03-05T02:48:54.342Z,0.72
2023-03-05T02:49:17.762Z,0.72
2023-03-05T02:49:41.287Z,0.73
2023-03-05T02:50:05.267Z,0.74
2023-03-05T02:50:28.336Z,0.76
2023-03-05T02:50:52.678Z,0.76
2023-03-05T02:51:15.897Z,0.78
2023-03-05T02:51:41.664Z,0.79
2023-03-05T02:52:05.698Z,0.81
2023-03-05T02:52:29.635Z,0.81
2023-03-05T02:52:52.782Z,0.82
2023-03-05T02:53:16.471Z,0.82
2023-03-05T02:53:39.795Z,0.82
2023-03-05T02:54:02.907Z,0.82
2023-03-05T02:54:26.839Z,0.81
2023-03-05T02:54:50.266Z,0.81
2023-03-05T02:55:13.466Z,0.80
2023-03-05T02:55:37.500Z,0.79
2023-03-05T02:56:01.237Z,0.77
2023-03-05T02:56:24.453Z,0.77
2023-03-05T02:56:54.839Z,0.75
2023-03-05T02:57:19.486Z,0.74
2023-03-05T02:57:43.116Z,0.74
2023-03-05T02:58:06.326Z,0.73
2023-03-05T02:58:29.966Z,0.73
2023-03-05T02:58:53.573Z,0.74
2023-03-05T02:59:17.602Z,0.75
2023-03-05T02:59:40.973Z,0.76
2023-03-05T03:00:05.342Z,0.76
2023-03-05T03:00:28.500Z,0.78
2023-03-05T03:00:51.841Z,0.79
2023-03-05T03:01:15.367Z,0.80
2023-03-05T03:01:38.533Z,0.81
2023-03-05T03:02:02.061Z,0.82
2023-03-05T03:02:28.346Z,0.81
2023-03-05T03:02:51.443Z,0.81
2023-03-05T03:03:14.438Z,0.81
2023-03-05T03:03:38.748Z,0.80
2023-03-05T03:04:03.055Z,0.79
2023-03-05T03:04:26.574Z,0.77
2023-03-05T03:04:49.630Z,0.76
2023-03-05T03:05:12.905Z,0.75
2023-03-05T03:05:36.336Z,0.74
2023-03-05T03:05:59.548Z,0.72
2023-03-05T03:06:22.657Z,0.71
2023-03-05T03:06:45.911Z,0.70
2023-03-05T03:07:08.991Z,0.70
2023-03-05T03:07:34.664Z,0.68
2023-03-05T03:08:00.028Z,0.69
2023-03-05T03:08:23.258Z,0.69
2023-03-05T03:08:49.939Z,0.69
2023-03-05T03:09:15.531Z,0.70
2023-03-05T03:09:39.856Z,0.71
2023-03-05T03:10:05.332Z,0.73
2023-03-05T03:10:28.764Z,0.74
2023-03-05T03:10:52.048Z,0.75
2023-03-05T03:11:15.470Z,0.76
2023-03-05T03:11:39.910Z,0.76
2023-03-05T03:12:03.958Z,0.77
2023-03-05T03:12:27.073Z,0.76
2023-03-05T03:12:50.342Z,0.76
2023-03-05T03:13:13.400Z,0.75
2023-03-05T03:13:36.400Z,0.74
2023-03-05T03:13:59.877Z,0.72
2023-03-05T03:14:24.510Z,0.71
2023-03-05T03:14:47.798Z,0.70
2023-03-05T03:15:14.280Z,0.68
2023-03-05T03:15:40.559Z,0.67
2023-03-05T03:16:09.103Z,0.66
2023-03-05T03:16:33.469Z,0.64
2023-03-05T03:16:56.496Z,0.63
2023-03-05T03:17:19.486Z,0.63
2023-03-05T03:17:42.988Z,0.63
2023-03-05T03:18:05.920Z,0.63
2023-03-05T03:18:29.966Z,0.63
2023-03-05T03:18:53.248Z,0.64
2023-03-05T03:19:17.354Z,0.65
2023-03-05T03:19:40.907Z,0.65
2023-03-05T03:20:25.511Z,0.66
2023-03-05T03:20:48.517Z,0.66
2023-03-05T03:21:16.612Z,0.67
2023-03-05T03:21:39.587Z,0.67
2023-03-05T03:22:05.323Z,0.67
2023-03-05T03:22:28.548Z,0.65
2023-03-05T03:22:51.620Z,0.64
2023-03-05T03:23:14.768Z,0.63
2023-03-05T03:23:37.986Z,0.61
2023-03-05T03:24:01.215Z,0.60
2023-03-05T03:24:24.730Z,0.58
2023-03-05T03:24:48.057Z,0.57
2023-03-05T03:25:12.080Z,0.55
2023-03-05T03:25:35.093Z,0.53
2023-03-05T03:25:58.414Z,0.52
2023-03-05T03:26:21.428Z,0.51
2023-03-05T03:26:44.330Z,0.50
2023-03-05T03:27:07.751Z,0.49
2023-03-05T03:27:31.585Z,0.49
2023-03-05T03:27:55.004Z,0.49
2023-03-05T03:28:18.116Z,0.50
2023-03-05T03:28:41.502Z,0.50
2023-03-05T03:29:05.369Z,0.51
2023-03-05T03:29:30.116Z,0.52
2023-03-05T03:29:53.026Z,0.53
2023-03-05T03:30:16.702Z,0.53
2023-03-05T03:30:39.907Z,0.54
2023-03-05T03:31:03.138Z,0.54
2023-03-05T03:31:26.302Z,0.55
2023-03-05T03:31:49.516Z,0.54
2023-03-05T03:32:13.092Z,0.55
2023-03-05T03:32:36.314Z,0.54
2023-03-05T03:32:59.477Z,0.52
2023-03-05T03:33:22.692Z,0.51
2023-03-05T03:33:45.674Z,0.50
2023-03-05T03:34:08.723Z,0.49
2023-03-05T03:34:34.997Z,0.47
2023-03-05T03:34:58.217Z,0.45
2023-03-05T03:35:21.698Z,0.44
2023-03-05T03:35:46.327Z,0.42
2023-03-05T03:36:09.804Z,0.41
2023-03-05T03:36:33.706Z,0.38
2023-03-05T03:36:56.691Z,0.37
2023-03-05T03:37:19.772Z,0.36
2023-03-05T03:37:42.809Z,0.35
2023-03-05T03:38:12.139Z,0.35
2023-03-05T03:38:35.142Z,0.34
2023-03-05T03:38:58.250Z,0.34
2023-03-05T03:39:21.231Z,0.35
2023-03-05T03:39:44.276Z,0.35
2023-03-05T03:40:07.574Z,0.36
2023-03-05T03:40:31.527Z,0.36
2023-03-05T03:40:54.760Z,0.37
2023-03-05T03:41:19.085Z,0.37
2023-03-05T03:41:43.122Z,0.38
2023-03-05T03:42:06.743Z,0.38
2023-03-05T03:42:29.961Z,0.38
2023-03-05T03:42:53.178Z,0.38
2023-03-05T03:43:16.195Z,0.38
2023-03-05T03:43:39.726Z,0.37
2023-03-05T03:44:08.888Z,0.36
2023-03-05T03:44:32.789Z,0.35
2023-03-05T03:44:57.238Z,0.33
2023-03-05T03:45:22.214Z,0.32
2023-03-05T03:45:45.304Z,0.30
2023-03-05T03:46:10.000Z,0.29
2023-03-05T03:46:33.194Z,0.28
2023-03-05T03:46:56.390Z,0.27
2023-03-05T03:47:19.622Z,0.25
2023-03-05T03:47:43.246Z,0.25
2023-03-05T03:48:06.752Z,0.25
2023-03-05T03:48:29.763Z,0.25
2023-03-05T03:48:53.081Z,0.25
2023-03-05T03:49:20.285Z,0.25
2023-03-05T03:49:43.704Z,0.26
2023-03-05T03:50:07.026Z,0.26
2023-03-05T03:50:30.970Z,0.26
2023-03-05T03:50:54.072Z,0.26
2023-03-05T03:51:17.084Z,0.26
2023-03-05T03:51:40.096Z,0.26
2023-03-05T03:52:04.205Z,0.26
2023-03-05T03:52:27.663Z,0.25
2023-03-05T03:52:54.039Z,0.24
2023-03-05T03:53:17.578Z,0.23
2023-03-05T03:53:40.988Z,0.22
2023-03-05T03:54:05.336Z,0.20
2023-03-05T03:54:36.824Z,0.18
2023-03-05T03:55:02.805Z,0.16
2023-03-05T03:55:27.759Z,0.15
2023-03-05T03:55:50.890Z,0.14
2023-03-05T03:56:13.792Z,0.13
2023-03-05T03:56:37.213Z,0.13
2023-03-05T03:57:00.420Z,0.13
2023-03-05T03:57:26.302Z,0.14
2023-03-05T03:57:49.509Z,0.13
2023-03-05T03:58:12.934Z,0.15
2023-03-05T03:58:35.946Z,0.16
2023-03-05T03:58:58.954Z,0.17
2023-03-05T03:59:22.375Z,0.17
2023-03-05T03:59:46.312Z,0.18
2023-03-05T04:00:10.508Z,0.19
2023-03-05T04:00:36.227Z,0.20
2023-03-05T04:01:01.388Z,0.19
2023-03-05T04:01:24.817Z,0.19
2023-03-05T04:01:48.153Z,0.18
2023-03-05T04:02:11.103Z,0.18
2023-03-05T04:02:36.210Z,0.17
2023-03-05T04:02:59.215Z,0.15
2023-03-05T04:03:22.519Z,0.14
2023-03-05T04:03:45.838Z,0.13
2023-03-05T04:04:10.287Z,0.11
2023-03-05T04:04:33.623Z,0.10
2023-03-05T04:04:58.051Z,0.08
2023-03-05T04:05:21.057Z,0.07
2023-03-05T04:05:44.066Z,0.05
2023-03-05T04:06:07.390Z,0.04
2023-03-05T04:06:33.979Z,0.03
2023-03-05T04:06:59.137Z,0.02
2023-03-05T04:07:24.810Z,-0.00
2023-03-05T04:07:53.446Z,-0.01
2023-03-05T04:08:17.284Z,-0.03
2023-03-05T04:08:40.312Z,-0.03
2023-03-05T04:09:03.706Z,-0.03
2023-03-05T04:09:27.022Z,-0.03
2023-03-05T04:09:50.650Z,-0.03
2023-03-05T04:10:13.898Z,-0.02
2023-03-05T04:10:39.913Z,-0.01
2023-03-05T04:11:03.775Z,-0.00
2023-03-05T04:11:26.790Z,0.01
2023-03-05T04:11:50.226Z,0.01
2023-03-05T04:12:18.236Z,0.02
2023-03-05T04:12:43.708Z,0.02
2023-03-05T04:13:07.506Z,0.02
2023-03-05T04:13:31.154Z,0.02
2023-03-05T04:13:54.266Z,0.00
2023-03-05T04:14:22.499Z,-0.00
2023-03-05T04:14:49.613Z,-0.02
2023-03-05T04:15:12.503Z,-0.02
2023-03-05T04:15:35.944Z,-0.04
2023-03-05T04:15:59.421Z,-0.04
2023-03-05T04:16:22.874Z,-0.06
2023-03-05T04:16:46.202Z,-0.07
2023-03-05T04:17:09.409Z,-0.08
2023-03-05T04:17:32.936Z,-0.08
2023-03-05T04:17:56.148Z,-0.10
2023-03-05T04:18:19.568Z,-0.11
2023-03-05T04:18:42.682Z,-0.12
2023-03-05T04:19:05.799Z,-0.12
2023-03-05T04:19:30.778Z,-0.14
2023-03-05T04:19:55.259Z,-0.15
2023-03-05T04:20:21.794Z,-0.16
2023-03-05T04:20:45.003Z,-0.17
2023-03-05T04:21:09.894Z,-0.17
2023-03-05T04:21:35.629Z,-0.18
2023-03-05T04:21:59.201Z,-0.18
2023-03-05T04:22:22.160Z,-0.17
2023-03-05T04:22:45.385Z,-0.17
2023-03-05T04:23:08.922Z,-0.15
2023-03-05T04:23:32.058Z,-0.15
2023-03-05T04:23:55.238Z,-0.14
2023-03-05T04:24:18.481Z,-0.13
2023-03-05T04:24:42.086Z,-0.12
2023-03-05T04:25:08.526Z,-0.12
2023-03-05T04:25:31.657Z,-0.11
2023-03-05T04:25:56.436Z,-0.11
2023-03-05T04:26:20.462Z,-0.12
2023-03-05T04:26:43.683Z,-0.12
2023-03-05T04:27:06.895Z,-0.13
2023-03-05T04:27:30.415Z,-0.14
2023-03-05T04:28:13.272Z,-0.16
2023-03-05T04:28:48.456Z,-0.18
2023-03-05T04:29:11.473Z,-0.20
2023-03-05T04:29:35.293Z,-0.21
2023-03-05T04:29:58.204Z,-0.22
2023-03-05T04:30:23.675Z,-0.23
2023-03-05T04:30:47.649Z,-0.24
2023-03-05T04:31:10.651Z,-0.25
2023-03-05T04:31:35.922Z,-0.27
2023-03-05T04:31:59.603Z,-0.28
2023-03-05T04:32:26.252Z,-0.29
2023-03-05T04:32:49.818Z,-0.28
2023-03-05T04:33:12.931Z,-0.30
2023-03-05T04:33:36.045Z,-0.30
2023-03-05T04:33:59.669Z,-0.30
2023-03-05T04:34:22.885Z,-0.30
2023-03-05T04:34:46.001Z,-0.29
2023-03-05T04:35:09.318Z,-0.28
2023-03-05T04:35:32.985Z,-0.27
2023-03-05T04:35:56.194Z,-0.26
2023-03-05T04:36:23.676Z,-0.24
2023-03-05T04:36:46.618Z,-0.24
2023-03-05T04:37:11.031Z,-0.22
2023-03-05T04:37:34.240Z,-0.22
2023-03-05T04:37:57.356Z,-0.20
2023-03-05T04:38:21.592Z,-0.20
2023-03-05T04:38:45.523Z,-0.20
2023-03-05T04:39:08.450Z,-0.20
2023-03-05T04:39:31.755Z,-0.21
2023-03-05T04:39:54.868Z,-0.22
2023-03-05T04:40:19.238Z,-0.23
2023-03-05T04:40:42.220Z,-0.24
2023-03-05T04:41:05.539Z,-0.24
2023-03-05T04:41:28.571Z,-0.25
2023-03-05T04:41:56.268Z,-0.25
2023-03-05T04:42:24.258Z,-0.27
2023-03-05T04:42:47.308Z,-0.28
2023-03-05T04:43:10.324Z,-0.29
2023-03-05T04:43:35.987Z,-0.30
2023-03-05T04:43:59.376Z,-0.31
2023-03-05T04:44:23.491Z,-0.31
2023-03-05T04:44:47.401Z,-0.32
2023-03-05T04:45:11.815Z,-0.33
2023-03-05T04:45:35.034Z,-0.33
2023-03-05T04:45:58.271Z,-0.34
2023-03-05T04:46:21.721Z,-0.34
2023-03-05T04:46:45.022Z,-0.34
2023-03-05T04:47:08.407Z,-0.34
2023-03-05T04:47:31.630Z,-0.33
2023-03-05T04:47:59.729Z,-0.32
2023-03-05T04:48:27.775Z,-0.31
2023-03-05T04:48:51.495Z,-0.30
2023-03-05T04:49:15.948Z,-0.28
2023-03-05T04:49:39.367Z,-0.27
2023-03-05T04:50:04.014Z,-0.25
2023-03-05T04:50:27.749Z,-0.23
2023-03-05T04:50:52.082Z,-0.21
2023-03-05T04:51:15.707Z,-0.19
2023-03-05T04:51:40.165Z,-0.18
2023-03-05T04:52:03.365Z,-0.17
2023-03-05T04:52:26.692Z,-0.17
2023-03-05T04:52:49.814Z,-0.17
2023-03-05T04:53:12.915Z,-0.18
2023-03-05T04:53:36.295Z,-0.17
2023-03-05T04:54:01.088Z,-0.18
2023-03-05T04:54:25.833Z,-0.19
2023-03-05T04:54:50.686Z,-0.19
2023-03-05T04:55:14.208Z,-0.20
2023-03-05T04:55:38.144Z,-0.21
2023-03-05T04:56:01.728Z,-0.21
2023-03-05T04:56:25.343Z,-0.22
2023-03-05T04:56:48.608Z,-0.23
2023-03-05T04:57:12.031Z,-0.23
2023-03-05T04:57:36.478Z,-0.24
2023-03-05T04:57:59.805Z,-0.24
2023-03-05T04:58:23.134Z,-0.25
2023-03-05T04:58:46.429Z,-0.25
2023-03-05T04:59:09.543Z,-0.26
2023-03-05T04:59:32.875Z,-0.26
2023-03-05T04:59:56.896Z,-0.25
2023-03-05T05:00:20.217Z,-0.23
2023-03-05T05:00:43.840Z,-0.21
2023-03-05T05:01:08.183Z,-0.19
2023-03-05T05:01:33.163Z,-0.17
2023-03-05T05:01:56.420Z,-0.16
2023-03-05T05:02:20.697Z,-0.15
2023-03-05T05:02:44.770Z,-0.13
2023-03-05T05:03:07.896Z,-0.11
2023-03-05T05:03:33.109Z,-0.10
2023-03-05T05:03:56.141Z,-0.09
2023-03-05T05:04:19.290Z,-0.08
2023-03-05T05:04:45.128Z,-0.08
2023-03-05T05:05:08.947Z,-0.08
2023-03-05T05:05:37.882Z,-0.08
2023-03-05T05:06:05.710Z,-0.09
2023-03-05T05:06:29.756Z,-0.09
2023-03-05T05:06:57.770Z,-0.09
2023-03-05T05:07:21.895Z,-0.09
2023-03-05T05:07:45.866Z,-0.10
2023-03-05T05:08:09.859Z,-0.10
2023-03-05T05:08:33.280Z,-0.10
2023-03-05T05:08:56.338Z,-0.11
2023-03-05T05:09:19.406Z,-0.11
2023-03-05T05:09:43.080Z,-0.11
2023-03-05T05:10:07.987Z,-0.12
2023-03-05T05:10:31.820Z,-0.12
2023-03-05T05:11:04.755Z,-0.12
2023-03-05T05:11:33.396Z,-0.12
2023-03-05T05:12:03.320Z,-0.11
2023-03-05T05:12:31.173Z,-0.10
2023-03-05T05:12:54.388Z,-0.08
2023-03-05T05:13:17.468Z,-0.07
2023-03-05T05:13:40.427Z,-0.05
2023-03-05T05:14:04.448Z,-0.04
2023-03-05T05:14:29.093Z,-0.03
2023-03-05T05:14:52.114Z,-0.01
2023-03-05T05:15:15.424Z,0.01
2023-03-05T05:15:40.276Z,0.02
2023-03-05T05:16:06.204Z,0.03
2023-03-05T05:16:29.117Z,0.04
2023-03-05T05:16:52.514Z,0.04
2023-03-05T05:17:15.513Z,0.04
2023-03-05T05:17:40.861Z,0.04
2023-03-05T05:18:06.025Z,0.04
2023-03-05T05:18:29.339Z,0.04
2023-03-05T05:18:52.450Z,0.04
2023-03-05T05:19:15.746Z,0.04
2023-03-05T05:19:39.167Z,0.03
2023-03-05T05:20:02.305Z,0.03
2023-03-05T05:20:25.783Z,0.03
2023-03-05T05:20:48.953Z,0.03
2023-03-05T05:21:14.512Z,0.01
2023-03-05T05:21:37.833Z,0.01
2023-03-05T05:22:01.165Z,0.01
2023-03-05T05:22:24.465Z,0.01
2023-03-05T05:22:47.501Z,0.01